Time;durP1;ratioP1;P1;durP2;ratioP2;P2;SDS_P1;SDS_P2;PMS_P1;PMS_P2;Temp;Humidity;BMP_temperature;BMP_pressure;BME280_temperature;BME280_humidity;BME280_pressure;Samples;Min_cycle;Max_cycle;Signal;HPM_P1;HPM_P2
2022/09/12 00:01:14;;;;;;;16.37;13.87;;;;;;;17.53;69.77;99605.58;1710829;82;21114;-73
2022/09/12 00:03:40;;;;;;;16.37;13.93;;;;;;;17.57;69.73;99602.48;1726153;82;21533;-72
2022/09/12 00:06:11;;;;;;;16.10;14.40;;;;;;;17.61;69.67;99609.94;1693161;83;21007;-72
2022/09/12 00:08:41;;;;;;;15.20;13.60;;;;;;;17.65;69.71;99598.70;1677807;85;20967;-73
2022/09/12 00:11:10;;;;;;;16.53;14.73;;;;;;;17.68;69.62;99595.35;1712434;82;22399;-71
2022/09/12 00:13:38;;;;;;;15.63;14.03;;;;;;;17.71;69.63;99596.05;1728507;82;21021;-74
2022/09/12 00:16:06;;;;;;;16.83;14.30;;;;;;;17.74;69.57;99597.53;1695567;83;21068;-72
2022/09/12 00:18:33;;;;;;;15.80;14.20;;;;;;;17.76;69.54;99592.60;1709620;83;21001;-73
2022/09/12 00:21:03;;;;;;;17.60;14.17;;;;;;;17.80;69.52;99592.73;1773774;80;21019;-72
2022/09/12 00:23:31;;;;;;;15.30;13.70;;;;;;;17.84;69.41;99587.49;1784828;80;21208;-73
2022/09/12 00:25:58;;;;;;;15.17;13.50;;;;;;;17.87;69.29;99586.27;1784912;80;21003;-70
2022/09/12 00:28:25;;;;;;;15.87;14.13;;;;;;;17.86;69.13;99586.59;1783450;80;21002;-73
2022/09/12 00:30:51;;;;;;;15.53;13.87;;;;;;;17.84;69.00;99581.53;1784144;80;20943;-73
2022/09/12 00:33:18;;;;;;;16.13;14.53;;;;;;;17.81;68.92;99576.78;1784793;80;20943;-73
2022/09/12 00:35:48;;;;;;;14.67;13.03;;;;;;;17.81;68.87;99576.78;1784667;80;21060;-70
2022/09/12 00:38:16;;;;;;;15.30;13.80;;;;;;;17.79;68.86;99571.69;1750283;80;21408;-73
2022/09/12 00:40:43;;;;;;;15.73;14.13;;;;;;;17.76;68.75;99564.24;1741877;82;20989;-72
2022/09/12 00:43:34;;;;;;;15.20;13.53;;;;;;;17.74;68.77;99556.23;1742712;82;21024;-72
2022/09/12 00:46:05;;;;;;;14.80;13.17;;;;;;;17.72;68.78;99561.16;1745592;80;21037;-72
2022/09/12 00:48:37;;;;;;;14.10;12.63;;;;;;;17.68;68.79;99558.89;1770437;80;21001;-73
2022/09/12 00:51:04;;;;;;;13.88;12.47;;;;;;;17.65;68.81;99555.50;1763327;80;21054;-73
2022/09/12 00:53:31;;;;;;;14.20;12.80;;;;;;;17.56;68.79;99550.93;1770927;80;21019;-71
2022/09/12 00:55:58;;;;;;;13.60;12.30;;;;;;;17.51;68.83;99555.19;1755229;80;21023;-73
2022/09/12 00:58:28;;;;;;;14.70;13.17;;;;;;;17.51;68.83;99555.19;1691375;83;21054;-73
2022/09/12 01:00:57;;;;;;;16.77;13.05;;;;;;;17.50;68.85;99559.55;1710432;82;21149;-72
2022/09/12 01:03:24;;;;;;;14.13;12.63;;;;;;;17.47;68.92;99547.52;1708136;82;21036;-73
2022/09/12 01:06:23;;;;;;;14.70;13.20;;;;;;;17.45;68.95;99546.26;1722001;83;21736;-73
2022/09/12 01:08:50;;;;;;;14.93;13.37;;;;;;;17.45;68.99;99552.45;1725878;83;21087;-73
2022/09/12 01:11:17;;;;;;;14.43;12.77;;;;;;;17.44;69.01;99546.83;1783106;80;21113;-73
2022/09/12 01:13:44;;;;;;;14.20;12.80;;;;;;;17.44;69.01;99546.83;1784187;80;21138;-73
2022/09/12 01:16:11;;;;;;;14.27;12.83;;;;;;;17.45;69.01;99552.45;1764747;80;21843;-71
2022/09/12 01:18:53;;;;;;;14.30;12.80;;;;;;;17.45;68.94;99543.56;1742207;80;21043;-72
2022/09/12 01:21:41;;;;;;;14.40;12.98;;;;;;;17.43;68.89;99549.27;1751780;79;21650;-69
2022/09/12 01:24:43;;;;;;;14.73;13.23;;;;;;;17.41;68.97;99549.39;1754316;80;21055;-72
2022/09/12 01:27:56;;;;;;;13.87;12.50;;;;;;;17.38;68.99;99550.03;1753089;80;21635;-72
2022/09/12 01:30:51;;;;;;;14.43;12.93;;;;;;;17.32;69.13;99552.13;1750799;80;21697;-73
2022/09/12 01:33:29;;;;;;;13.93;12.53;;;;;;;17.28;69.33;99546.59;1738286;80;20968;-73
2022/09/12 01:36:31;;;;;;;13.87;12.33;;;;;;;17.26;69.30;99549.38;1750895;80;22299;-72
2022/09/12 01:39:04;;;;;;;12.88;11.63;;;;;;;17.24;69.39;99550.25;1749858;80;21770;-73
2022/09/12 01:41:43;;;;;;;13.47;12.07;;;;;;;17.20;69.45;99549.33;1711957;83;21318;-73
2022/09/12 01:44:36;;;;;;;13.27;11.97;;;;;;;17.10;69.55;99555.31;1711636;82;22165;-72
2022/09/12 01:47:20;;;;;;;12.53;11.33;;;;;;;17.10;69.55;99555.31;1700799;83;21059;-72
2022/09/12 01:50:06;;;;;;;12.20;11.00;;;;;;;17.06;69.73;99552.25;1784487;80;21687;-72
2022/09/12 01:52:52;;;;;;;12.03;10.80;;;;;;;16.97;69.92;99554.19;1779941;80;21710;-72
2022/09/12 01:55:36;;;;;;;11.77;10.50;;;;;;;16.94;70.08;99550.23;1767078;80;21690;-72
2022/09/12 01:58:07;;;;;;;12.10;10.80;;;;;;;16.91;70.18;99550.87;1766665;80;21899;-72
2022/09/12 02:00:41;;;;;;;11.07;9.97;;;;;;;16.87;70.27;99551.30;1771516;80;21781;-70
2022/09/12 02:03:17;;;;;;;12.27;10.07;;;;;;;16.86;70.36;99547.02;1771130;80;21785;-71
2022/09/12 02:05:52;;;;;;;10.97;9.87;;;;;;;16.84;70.39;99547.89;1764222;80;21742;-72
2022/09/12 02:08:30;;;;;;;11.37;10.27;;;;;;;16.84;70.47;99545.20;1776710;80;21690;-73
2022/09/12 02:11:04;;;;;;;11.23;10.03;;;;;;;16.84;70.50;99552.73;1784641;80;22189;-72
2022/09/12 02:13:52;;;;;;;10.90;9.80;;;;;;;16.86;70.40;99545.67;1768738;80;21695;-72
2022/09/12 02:16:33;;;;;;;9.37;8.43;;;;;;;16.86;70.40;99544.33;1711394;82;21751;-73
2022/09/12 02:19:13;;;;;;;9.97;8.97;;;;;;;16.88;70.36;99546.16;1710839;82;21730;-73
2022/09/12 02:21:45;;;;;;;9.50;8.50;;;;;;;16.90;70.25;99544.47;1702653;83;21635;-72
2022/09/12 02:24:12;;;;;;;9.73;8.50;;;;;;;16.86;70.06;99541.63;1771740;80;21703;-71
2022/09/12 02:26:43;;;;;;;9.97;8.00;;;;;;;16.83;70.04;99540.92;1747041;80;21064;-72
2022/09/12 02:29:10;;;;;;;8.33;6.10;;;;;;;16.80;70.03;99536.17;1768437;80;21700;-72
2022/09/12 02:31:47;;;;;;;11.83;7.67;;;;;;;16.76;69.97;99544.69;1768908;80;21490;-72
2022/09/12 02:34:22;;;;;;;8.47;7.57;;;;;;;16.65;69.98;99538.83;1770882;80;21699;-72
2022/09/12 02:37:24;;;;;;;8.10;7.30;;;;;;;16.56;70.13;99545.58;1762077;80;21800;-72
2022/09/12 02:39:53;;;;;;;7.93;7.13;;;;;;;16.51;70.33;99540.91;1772239;80;22232;-71
2022/09/12 02:42:21;;;;;;;7.97;7.17;;;;;;;16.48;70.42;99540.20;1768176;80;21688;-70
2022/09/12 02:44:49;;;;;;;7.93;7.23;;;;;;;16.46;70.49;99545.93;1711071;82;21732;-72
2022/09/12 02:47:30;;;;;;;7.60;6.90;;;;;;;16.46;70.53;99543.23;1712388;83;22222;-72
2022/09/12 02:49:56;;;;;;;6.90;6.20;;;;;;;16.48;70.56;99549.08;1711151;82;21720;-72
2022/09/12 02:52:26;;;;;;;6.97;6.27;;;;;;;16.50;70.51;99552.81;1710688;82;21803;-72
2022/09/12 02:54:52;;;;;;;8.53;6.60;;;;;;;16.49;70.49;99552.59;1707905;82;21649;-71
2022/09/12 02:57:20;;;;;;;7.17;6.27;;;;;;;16.51;70.49;99558.43;1707817;83;21664;-72
2022/09/12 02:59:47;;;;;;;7.27;6.40;;;;;;;16.53;70.47;99559.70;1772890;80;21630;-72
2022/09/12 03:02:47;;;;;;;9.73;6.97;;;;;;;16.52;70.34;99560.00;1762586;80;21625;-72
2022/09/12 03:05:28;;;;;;;7.07;6.37;;;;;;;16.52;70.34;99562.70;1771588;79;21979;-71
2022/09/12 03:08:17;;;;;;;7.47;5.90;;;;;;;16.56;70.29;99561.76;1766331;80;21725;-70
2022/09/12 03:10:57;;;;;;;6.03;5.43;;;;;;;16.53;70.17;99565.09;1768668;80;22105;-71
2022/09/12 03:13:39;;;;;;;7.93;7.13;;;;;;;16.48;70.22;99563.11;1766254;80;21717;-71
2022/09/12 03:16:41;;;;;;;9.00;6.70;;;;;;;16.48;70.34;99561.77;1763152;80;22211;-72
2022/09/12 03:19:41;;;;;;;7.53;6.70;;;;;;;16.53;70.40;99562.40;1710131;83;21019;-71
2022/09/12 03:22:29;;;;;;;7.67;6.67;;;;;;;16.62;70.41;99559.69;1687844;83;21835;-71
2022/09/12 03:25:20;;;;;;;7.57;6.40;;;;;;;16.71;70.31;99560.44;1716571;82;21786;-71
2022/09/12 03:27:56;;;;;;;7.80;5.85;;;;;;;16.78;70.22;99562.66;1752922;80;21767;-72
2022/09/12 03:30:22;;;;;;;6.50;5.77;;;;;;;16.86;70.10;99559.16;1759509;80;21050;-72
2022/09/12 03:32:52;;;;;;;7.33;5.93;;;;;;;16.89;69.89;99561.22;1770901;80;22346;-71
2022/09/12 03:35:22;;;;;;;8.00;6.27;;;;;;;16.94;69.76;99564.28;1768040;80;21755;-71
2022/09/12 03:37:49;;;;;;;8.83;6.10;;;;;;;16.97;69.62;99565.77;1768246;80;21638;-72
2022/09/12 03:40:15;;;;;;;5.90;5.27;;;;;;;17.00;69.50;99566.47;1766018;80;21740;-72
2022/09/12 03:42:42;;;;;;;6.50;5.70;;;;;;;17.00;69.21;99562.42;1772037;80;21582;-72
2022/09/12 03:45:09;;;;;;;6.27;5.30;;;;;;;16.98;69.08;99558.46;1771271;80;21646;-72
2022/09/12 03:47:35;;;;;;;6.60;5.80;;;;;;;17.00;68.93;99552.98;1781932;80;20951;-72
2022/09/12 03:50:05;;;;;;;7.73;5.70;;;;;;;17.00;68.93;99552.98;1784669;80;21070;-72
2022/09/12 03:52:32;;;;;;;7.53;5.63;;;;;;;17.05;68.86;99558.21;1784715;80;21704;-71
2022/09/12 03:54:59;;;;;;;6.13;5.23;;;;;;;17.08;68.80;99558.91;1784447;80;20971;-70
2022/09/12 03:57:28;;;;;;;6.83;5.60;;;;;;;17.13;68.77;99558.49;1772361;80;21759;-71
2022/09/12 04:00:07;;;;;;;6.03;4.90;;;;;;;17.15;68.67;99564.37;1711664;83;22164;-71
2022/09/12 04:02:35;;;;;;;5.43;4.83;;;;;;;17.14;68.50;99573.56;1721220;82;21753;-71
2022/09/12 04:05:03;;;;;;;5.73;5.03;;;;;;;17.08;68.35;99567.57;1753739;80;21641;-72
2022/09/12 04:07:29;;;;;;;5.67;4.87;;;;;;;17.04;68.23;99576.84;1772792;80;22239;-72
2022/09/12 04:09:57;;;;;;;5.97;5.00;;;;;;;16.98;68.24;99581.39;1753123;80;21634;-71
2022/09/12 04:12:23;;;;;;;5.63;4.03;;;;;;;16.98;68.24;99581.39;1765681;80;21061;-72
2022/09/12 04:14:50;;;;;;;6.47;4.57;;;;;;;16.97;68.16;99585.21;1763052;80;21675;-72
2022/09/12 04:17:17;;;;;;;3.93;3.33;;;;;;;16.94;68.08;99583.95;1712272;82;21910;-71
2022/09/12 04:19:43;;;;;;;5.50;3.40;;;;;;;16.91;67.77;99587.29;1704467;83;21059;-72
2022/09/12 04:22:10;;;;;;;4.93;3.40;;;;;;;16.90;67.78;99580.31;1770786;80;21014;-71
2022/09/12 04:24:36;;;;;;;3.77;2.70;;;;;;;16.82;67.42;99585.20;1771017;80;21121;-73
2022/09/12 04:27:03;;;;;;;3.87;2.17;;;;;;;16.48;66.27;99590.85;1758005;80;20956;-72
2022/09/12 04:29:30;;;;;;;2.83;2.27;;;;;;;16.48;66.27;99590.85;1714504;83;21167;-71
2022/09/12 04:31:57;;;;;;;3.07;1.90;;;;;;;16.31;65.98;99589.53;1715131;82;21615;-71
2022/09/12 04:34:23;;;;;;;5.77;2.40;;;;;;;16.18;66.22;99588.59;1711600;82;22109;-73
2022/09/12 04:36:50;;;;;;;3.10;1.73;;;;;;;16.10;66.38;99593.44;1710039;82;22297;-73
2022/09/12 04:39:17;;;;;;;3.87;1.90;;;;;;;16.02;66.57;99596.91;1711170;82;21057;-72
2022/09/12 04:41:43;;;;;;;3.10;2.00;;;;;;;15.96;66.87;99590.91;1710137;82;21777;-72
2022/09/12 04:44:12;;;;;;;2.87;2.13;;;;;;;15.88;67.06;99587.08;1710466;82;22299;-73
2022/09/12 04:46:43;;;;;;;2.93;1.87;;;;;;;15.83;67.26;99599.92;1711995;83;21646;-73
2022/09/12 04:49:11;;;;;;;4.20;1.50;;;;;;;15.79;67.34;99601.64;1711911;82;22161;-72
2022/09/12 04:51:40;;;;;;;2.40;1.50;;;;;;;15.67;67.40;99599.02;1699175;83;22168;-72
2022/09/12 04:54:17;;;;;;;3.33;1.80;;;;;;;15.63;67.70;99609.33;1696272;84;21717;-73
2022/09/12 04:56:47;;;;;;;2.20;1.73;;;;;;;15.58;67.86;99611.63;1696437;84;21745;-73
2022/09/12 04:59:16;;;;;;;2.00;1.50;;;;;;;15.62;68.13;99611.80;1695380;84;21761;-73
2022/09/12 05:01:44;;;;;;;3.00;1.63;;;;;;;15.65;68.20;99614.66;1696257;84;22365;-74
2022/09/12 05:04:13;;;;;;;1.87;1.30;;;;;;;15.63;68.24;99613.37;1711856;82;21777;-72
2022/09/12 05:06:40;;;;;;;1.67;1.13;;;;;;;15.58;68.52;99608.94;1712136;83;21508;-74
2022/09/12 05:09:08;;;;;;;1.70;1.30;;;;;;;15.60;68.09;99610.78;1711874;83;21867;-72
2022/09/12 05:11:36;;;;;;;2.27;1.20;;;;;;;15.52;68.12;99607.50;1712250;83;21737;-73
2022/09/12 05:14:04;;;;;;;1.83;1.10;;;;;;;15.47;68.23;99611.14;1692154;83;21740;-73
2022/09/12 05:16:31;;;;;;;2.90;1.07;;;;;;;15.45;68.23;99621.97;1712352;83;22148;-73
2022/09/12 05:18:59;;;;;;;1.60;0.93;;;;;;;15.44;68.28;99610.97;1711899;83;21721;-73
2022/09/12 05:21:26;;;;;;;2.87;0.80;;;;;;;15.45;68.41;99599.88;1711799;83;21674;-74
2022/09/12 05:23:55;;;;;;;4.23;1.30;;;;;;;15.45;68.24;99614.68;1712114;83;21722;-72
2022/09/12 05:26:22;;;;;;;2.23;1.13;;;;;;;15.45;68.33;99608.52;1711762;83;21693;-72
2022/09/12 05:28:50;;;;;;;2.50;0.93;;;;;;;15.47;68.39;99602.27;1712215;83;21709;-73
2022/09/12 05:31:21;;;;;;;1.77;0.90;;;;;;;15.55;68.34;99607.43;1711918;83;21663;-73
2022/09/12 05:33:49;;;;;;;2.00;1.00;;;;;;;15.61;68.26;99609.66;1712154;83;21718;-72
2022/09/12 05:36:19;;;;;;;2.63;0.87;;;;;;;15.68;68.26;99606.54;1711782;83;22252;-72
2022/09/12 05:38:46;;;;;;;1.80;1.10;;;;;;;15.67;67.87;99605.75;1712243;83;21715;-72
2022/09/12 05:41:23;;;;;;;2.20;0.80;;;;;;;15.61;67.40;99606.97;1711925;83;21725;-73
2022/09/12 05:43:54;;;;;;;1.53;0.77;;;;;;;15.57;67.21;99606.02;1711247;82;21774;-73
2022/09/12 05:46:24;;;;;;;1.67;0.90;;;;;;;15.54;67.44;99597.78;1701877;83;21748;-72
2022/09/12 05:48:51;;;;;;;1.27;0.77;;;;;;;15.49;67.53;99598.14;1771984;80;21141;-71
2022/09/12 05:51:21;;;;;;;1.67;0.90;;;;;;;15.50;67.50;99608.38;1770850;80;22218;-72
2022/09/12 05:53:57;;;;;;;1.60;1.00;;;;;;;15.44;67.32;99610.41;1770220;80;21681;-73
2022/09/12 05:56:27;;;;;;;2.90;0.90;;;;;;;15.35;67.43;99612.83;1773788;80;21593;-71
2022/09/12 05:59:00;;;;;;;1.30;0.90;;;;;;;15.31;67.64;99614.56;1770061;80;21661;-73
2022/09/12 06:01:29;;;;;;;1.10;0.83;;;;;;;15.29;67.73;99615.42;1760562;80;21676;-71
2022/09/12 06:03:59;;;;;;;2.20;1.00;;;;;;;15.34;68.08;99612.60;1768701;79;21799;-72
2022/09/12 06:06:28;;;;;;;2.47;0.90;;;;;;;15.42;67.98;99612.61;1773213;80;21685;-71
2022/09/12 06:08:59;;;;;;;2.20;0.70;;;;;;;15.52;67.90;99612.87;1771073;80;22290;-73
2022/09/12 06:11:30;;;;;;;1.20;0.80;;;;;;;15.64;67.80;99609.03;1756579;80;21672;-73
2022/09/12 06:13:57;;;;;;;0.70;0.60;;;;;;;15.76;67.47;99615.20;1712194;83;21610;-73
2022/09/12 06:16:26;;;;;;;0.60;0.60;;;;;;;15.86;66.55;99616.77;1711121;82;21564;-72
2022/09/12 06:18:57;;;;;;;1.20;0.50;;;;;;;15.81;66.10;99616.94;1707580;83;21789;-72
2022/09/12 06:21:25;;;;;;;1.13;0.70;;;;;;;15.78;65.62;99625.08;1784587;80;21589;-74
2022/09/12 06:23:55;;;;;;;4.53;0.90;;;;;;;15.74;65.47;99619.30;1784506;80;22226;-72
2022/09/12 06:26:22;;;;;;;1.10;0.70;;;;;;;15.75;65.54;99627.61;1771063;80;22259;-72
2022/09/12 06:28:50;;;;;;;0.60;0.50;;;;;;;15.78;65.68;99624.30;1771588;80;22162;-73
2022/09/12 06:31:19;;;;;;;1.43;0.60;;;;;;;15.86;65.63;99619.46;1765032;80;22207;-73
2022/09/12 06:33:49;;;;;;;2.27;0.80;;;;;;;15.88;65.14;99623.43;1766001;80;21733;-74
2022/09/12 06:36:25;;;;;;;1.40;0.60;;;;;;;15.83;64.45;99625.50;1711964;83;22166;-72
2022/09/12 06:38:59;;;;;;;0.67;0.50;;;;;;;15.75;64.62;99624.92;1712705;82;21760;-73
2022/09/12 06:41:26;;;;;;;1.00;0.70;;;;;;;15.79;64.84;99625.31;1705519;83;21739;-74
2022/09/12 06:43:53;;;;;;;0.60;0.50;;;;;;;15.88;64.81;99629.38;1781753;80;21661;-73
2022/09/12 06:46:20;;;;;;;1.63;0.60;;;;;;;15.89;64.30;99625.56;1784517;80;21841;-74
2022/09/12 06:48:49;;;;;;;1.53;0.57;;;;;;;15.88;64.28;99625.34;1760407;80;21709;-73
2022/09/12 06:51:17;;;;;;;2.93;0.80;;;;;;;16.02;64.38;99623.28;1711160;82;21671;-74
2022/09/12 06:53:45;;;;;;;1.83;1.00;;;;;;;16.18;64.24;99624.41;1711606;82;21699;-73
2022/09/12 06:56:20;;;;;;;1.27;0.70;;;;;;;16.33;63.80;99621.80;1711211;82;21615;-73
2022/09/12 06:58:48;;;;;;;0.87;0.60;;;;;;;16.49;63.44;99620.77;1709717;82;21949;-73
2022/09/12 07:01:25;;;;;;;1.67;0.80;;;;;;;16.67;63.36;99622.86;1705706;83;21713;-73
2022/09/12 07:03:58;;;;;;;0.97;0.70;;;;;;;16.93;63.22;99624.74;1771586;80;21086;-74
2022/09/12 07:06:31;;;;;;;2.17;0.80;;;;;;;17.19;62.78;99628.70;1763300;80;20951;-72
2022/09/12 07:09:00;;;;;;;1.67;0.80;;;;;;;17.41;61.83;99629.80;1765420;80;20978;-74
2022/09/12 07:11:30;;;;;;;0.67;0.53;;;;;;;17.46;60.21;99628.25;1770855;80;21857;-73
2022/09/12 07:13:59;;;;;;;1.30;0.72;;;;;;;17.42;60.19;99632.73;1762250;80;20967;-73
2022/09/12 07:16:27;;;;;;;1.13;0.70;;;;;;;17.42;60.11;99631.94;1769961;80;21027;-72
2022/09/12 07:19:01;;;;;;;1.07;0.90;;;;;;;17.46;60.17;99631.52;1762905;80;21032;-72
2022/09/12 07:21:28;;;;;;;1.40;0.73;;;;;;;17.46;59.36;99626.13;1765160;80;20935;-74
2022/09/12 07:23:59;;;;;;;0.90;0.70;;;;;;;17.49;58.72;99633.01;1771045;80;21054;-73
2022/09/12 07:26:27;;;;;;;1.47;0.80;;;;;;;17.44;58.31;99630.51;1771994;80;21054;-73
2022/09/12 07:28:54;;;;;;;2.50;0.90;;;;;;;17.39;58.07;99637.98;1770949;80;21753;-73
2022/09/12 07:31:23;;;;;;;2.33;0.80;;;;;;;17.33;58.06;99634.67;1771205;80;21037;-72
2022/09/12 07:33:50;;;;;;;1.80;0.80;;;;;;;17.32;58.03;99631.75;1772128;80;21569;-71
2022/09/12 07:36:22;;;;;;;2.20;0.70;;;;;;;17.22;58.27;99631.55;1775210;80;21236;-72
2022/09/12 07:38:57;;;;;;;2.35;0.80;;;;;;;17.29;58.34;99635.87;1788236;80;21010;-72
2022/09/12 07:41:28;;;;;;;1.10;0.80;;;;;;;17.42;58.38;99631.94;1786723;80;21089;-74
2022/09/12 07:43:57;;;;;;;1.70;0.80;;;;;;;17.60;57.21;99633.42;1782896;80;21155;-75
2022/09/12 07:46:25;;;;;;;1.80;0.90;;;;;;;17.78;57.01;99634.94;1779839;80;20978;-74
2022/09/12 07:48:53;;;;;;;1.70;0.70;;;;;;;17.93;56.71;99624.13;1766765;80;21125;-74
2022/09/12 07:51:20;;;;;;;1.30;0.83;;;;;;;18.11;56.19;99624.78;1765509;80;20972;-74
2022/09/12 07:53:51;;;;;;;2.00;0.87;;;;;;;18.14;55.43;99628.18;1766470;80;21487;-73
2022/09/12 07:56:16;;;;;;;2.93;0.80;;;;;;;18.20;55.52;99634.19;1771612;80;20951;-73
2022/09/12 07:58:43;;;;;;;1.33;0.80;;;;;;;18.30;55.27;99631.08;1750898;80;20956;-73
2022/09/12 08:01:16;;;;;;;1.23;0.80;;;;;;;18.45;54.91;99628.31;1756833;80;21112;-75
2022/09/12 08:03:45;;;;;;;1.27;0.80;;;;;;;18.56;54.04;99624.62;1771970;79;21035;-73
2022/09/12 08:06:22;;;;;;;1.57;0.80;;;;;;;18.56;53.96;99621.39;1771710;80;21065;-74
2022/09/12 08:08:49;;;;;;;1.47;0.90;;;;;;;18.62;53.51;99630.06;1765158;80;21024;-73
2022/09/12 08:11:17;;;;;;;1.60;1.00;;;;;;;18.72;53.37;99625.08;1771220;80;21113;-73
2022/09/12 08:13:44;;;;;;;2.33;1.20;;;;;;;18.76;52.27;99620.35;1772409;80;21680;-73
2022/09/12 08:16:19;;;;;;;3.40;1.10;;;;;;;18.68;51.78;99623.33;1765123;80;21037;-73
2022/09/12 08:18:48;;;;;;;2.43;1.30;;;;;;;18.69;52.11;99628.41;1757161;80;21031;-74
2022/09/12 08:21:20;;;;;;;1.60;1.00;;;;;;;18.67;50.96;99623.89;1711687;82;20988;-73
2022/09/12 08:23:47;;;;;;;1.90;1.17;;;;;;;18.68;51.35;99624.67;1712413;83;21050;-73
2022/09/12 08:26:13;;;;;;;1.37;1.10;;;;;;;18.75;50.95;99620.89;1691461;82;21602;-73
2022/09/12 08:28:44;;;;;;;2.07;1.27;;;;;;;18.88;50.23;99622.50;1710520;82;21011;-72
2022/09/12 08:31:14;;;;;;;1.42;1.10;;;;;;;18.95;50.25;99618.70;1705202;83;21052;-74
2022/09/12 08:33:40;;;;;;;2.27;1.30;;;;;;;19.04;50.29;99615.09;1768699;80;20935;-73
2022/09/12 08:36:13;;;;;;;1.70;1.30;;;;;;;19.18;50.61;99621.78;1771194;80;21105;-73
2022/09/12 08:38:43;;;;;;;1.73;1.37;;;;;;;19.33;50.35;99616.24;1771591;80;21133;-72
2022/09/12 08:41:37;;;;;;;1.43;1.13;;;;;;;19.44;50.27;99619.28;1765303;80;21038;-73
2022/09/12 08:44:33;;;;;;;2.23;1.30;;;;;;;19.52;49.99;99614.33;1720855;82;21503;-73
2022/09/12 08:47:22;;;;;;;1.53;1.17;;;;;;;19.41;49.65;99613.19;1720051;82;21027;-73
2022/09/12 08:50:07;;;;;;;2.13;1.20;;;;;;;19.30;50.17;99605.30;1728074;80;20932;-74
2022/09/12 08:52:47;;;;;;;1.83;1.10;;;;;;;19.37;50.49;99610.37;1770929;80;21564;-73
2022/09/12 08:55:29;;;;;;;1.77;1.20;;;;;;;19.57;50.89;99605.95;1763470;80;21506;-74
2022/09/12 08:57:59;;;;;;;1.27;0.97;;;;;;;19.70;50.12;99605.41;1755788;80;21000;-74
2022/09/12 09:00:31;;;;;;;2.33;1.27;;;;;;;19.66;49.07;99609.94;1712135;83;21007;-73
2022/09/12 09:03:06;;;;;;;1.50;1.10;;;;;;;19.48;49.27;99612.08;1695734;83;21451;-75
2022/09/12 09:05:50;;;;;;;2.53;1.30;;;;;;;19.50;49.39;99610.38;1703225;82;22036;-73
2022/09/12 09:08:57;;;;;;;1.67;1.27;;;;;;;19.39;48.96;99610.83;1703157;83;21543;-74
2022/09/12 09:11:47;;;;;;;1.50;1.27;;;;;;;19.21;49.81;99614.31;1772014;80;21102;-72
2022/09/12 09:14:55;;;;;;;2.10;1.35;;;;;;;19.19;49.73;99613.09;1773881;80;20996;-72
2022/09/12 09:17:39;;;;;;;1.87;1.20;;;;;;;19.19;49.38;99607.11;1782064;80;21007;-73
2022/09/12 09:20:32;;;;;;;2.03;1.40;;;;;;;19.39;49.98;99606.77;1781741;80;21880;-74
2022/09/12 09:23:26;;;;;;;3.33;1.50;;;;;;;19.66;50.27;99608.58;1782892;80;37480;-73
2022/09/12 09:26:13;;;;;;;1.90;1.30;;;;;;;19.97;49.97;99611.22;1763720;80;21119;-73
2022/09/12 09:28:50;;;;;;;2.40;1.30;;;;;;;20.24;49.06;99607.77;1763068;80;21082;-72
2022/09/12 09:31:22;;;;;;;1.70;1.20;;;;;;;20.35;48.88;99615.62;1765794;80;21065;-73
2022/09/12 09:33:50;;;;;;;;;;;;;;;20.41;48.54;99616.75;1774576;80;21126;-74
2022/09/12 09:36:37;;;;;;;1.43;1.10;;;;;;;20.49;48.65;99614.44;1697204;83;20278;-72
2022/09/12 09:39:15;;;;;;;1.53;1.10;;;;;;;20.50;48.66;99616.00;1712661;83;21103;-74
2022/09/12 09:42:30;;;;;;;3.13;1.30;;;;;;;20.52;48.77;99616.48;1714099;83;21005;-71
2022/09/12 09:44:59;;;;;;;1.50;1.10;;;;;;;20.59;48.47;99619.39;1712883;83;21595;-73
2022/09/12 09:47:25;;;;;;;2.00;1.20;;;;;;;20.64;48.58;99624.58;1714932;83;21899;-72
2022/09/12 09:49:52;;;;;;;1.87;1.10;;;;;;;20.68;47.91;99618.67;1724471;83;21527;-73
2022/09/12 09:52:26;;;;;;;1.47;1.10;;;;;;;20.63;47.70;99616.20;1726398;83;21531;-74
2022/09/12 09:54:58;;;;;;;1.60;1.10;;;;;;;20.63;47.92;99615.41;1715514;82;21059;-72
2022/09/12 09:57:39;;;;;;;1.67;1.10;;;;;;;20.58;47.68;99615.89;1696858;83;28240;-74
2022/09/12 10:00:32;;;;;;;1.70;1.10;;;;;;;20.59;47.91;99613.96;1714845;83;21334;-73
2022/09/12 10:03:22;;;;;;;2.30;1.20;;;;;;;20.64;47.80;99613.72;1711699;83;21004;-72
2022/09/12 10:05:55;;;;;;;1.70;1.20;;;;;;;20.75;48.14;99615.35;1699741;84;21061;-73
2022/09/12 10:08:31;;;;;;;2.17;1.40;;;;;;;20.89;47.87;99614.92;1703698;83;21061;-72
2022/09/12 10:11:05;;;;;;;2.27;1.40;;;;;;;20.98;47.47;99622.34;1712320;83;21110;-72
2022/09/12 10:13:39;;;;;;;1.47;1.27;;;;;;;20.98;46.88;99620.41;1716950;83;21102;-73
2022/09/12 10:16:34;;;;;;;2.13;1.27;;;;;;;20.89;46.81;99622.50;1712149;83;21058;-73
2022/09/12 10:19:02;;;;;;;1.80;1.30;;;;;;;20.79;47.26;99627.08;1713209;83;22566;-72
2022/09/12 10:21:44;;;;;;;1.90;1.30;;;;;;;20.62;47.19;99624.12;1711786;83;21604;-73
2022/09/12 10:24:28;;;;;;;1.65;1.27;;;;;;;20.45;47.26;99629.27;1706318;83;20998;-74
2022/09/12 10:26:58;;;;;;;2.03;1.30;;;;;;;20.29;47.75;99626.49;1704522;84;21167;-74
2022/09/12 10:29:30;;;;;;;1.93;1.40;;;;;;;20.10;48.13;99627.14;1707201;83;21586;-73
2022/09/12 10:32:01;;;;;;;2.23;1.13;;;;;;;20.03;48.26;99628.27;1714765;83;21015;-73
2022/09/12 10:34:45;;;;;;;3.40;1.65;;;;;;;19.97;48.41;99630.98;1700246;83;21122;-73
2022/09/12 10:37:25;;;;;;;2.13;1.40;;;;;;;19.90;48.37;99627.50;1716829;83;20937;-74
2022/09/12 10:39:55;;;;;;;2.60;1.32;;;;;;;19.79;48.53;99627.75;1716796;83;21144;-73
2022/09/12 10:42:49;;;;;;;1.60;1.33;;;;;;;19.70;48.90;99631.15;1705053;83;21539;-73
2022/09/12 10:45:31;;;;;;;3.53;1.43;;;;;;;19.58;49.37;99628.44;1717950;83;20929;-72
2022/09/12 10:48:00;;;;;;;3.60;1.60;;;;;;;19.45;49.75;99630.36;1711625;83;20980;-74
2022/09/12 10:50:31;;;;;;;2.80;1.60;;;;;;;19.34;49.64;99637.34;1714734;83;21047;-74
2022/09/12 10:53:21;;;;;;;2.25;1.47;;;;;;;19.21;49.84;99631.91;1704614;84;21182;-73
2022/09/12 10:56:10;;;;;;;2.00;1.37;;;;;;;19.11;50.14;99649.94;1701695;84;21034;-72
2022/09/12 10:59:23;;;;;;;2.10;1.30;;;;;;;18.91;50.82;99644.04;1698473;84;21072;-73
2022/09/12 11:02:00;;;;;;;2.53;1.57;;;;;;;18.77;51.07;99648.41;1707927;83;21012;-71
2022/09/12 11:04:42;;;;;;;1.70;1.10;;;;;;;18.55;51.42;99652.23;1714704;82;21008;-74
2022/09/12 11:07:38;;;;;;;1.70;1.15;;;;;;;18.45;51.75;99650.73;1713252;82;21153;-71
2022/09/12 11:10:28;;;;;;;1.57;1.10;;;;;;;18.35;52.05;99655.19;1662725;83;20962;-72
2022/09/12 11:13:20;;;;;;;1.70;1.20;;;;;;;18.21;52.12;99657.38;1709538;83;20945;-72
2022/09/12 11:16:02;;;;;;;1.30;0.93;;;;;;;18.06;52.49;99661.45;1784392;80;21517;-73
2022/09/12 11:19:05;;;;;;;2.20;1.00;;;;;;;17.87;52.23;99661.09;1766662;80;21092;-73
2022/09/12 11:21:49;;;;;;;1.30;0.97;;;;;;;17.73;52.54;99664.02;1780810;80;21711;-73
2022/09/12 11:24:52;;;;;;;1.40;0.97;;;;;;;17.68;52.82;99664.22;1779313;80;21517;-73
2022/09/12 11:27:48;;;;;;;1.97;1.10;;;;;;;17.65;53.10;99665.65;1770984;80;21149;-72
2022/09/12 11:30:16;;;;;;;2.03;1.10;;;;;;;17.67;53.23;99668.02;1766644;80;21490;-73
2022/09/12 11:33:19;;;;;;;1.53;1.20;;;;;;;17.68;53.29;99669.05;1773840;80;21332;-73
2022/09/12 11:35:50;;;;;;;1.97;1.40;;;;;;;17.69;53.29;99662.52;1744333;80;22226;-73
2022/09/12 11:38:44;;;;;;;2.07;1.33;;;;;;;17.72;53.42;99663.79;1772170;80;21627;-73
2022/09/12 11:41:30;;;;;;;2.00;1.50;;;;;;;17.70;53.30;99665.48;1771945;80;20967;-72
2022/09/12 11:44:27;;;;;;;2.80;1.40;;;;;;;17.69;53.58;99669.27;1760567;80;20995;-73
2022/09/12 11:46:54;;;;;;;3.13;1.60;;;;;;;17.75;53.44;99669.89;1774060;80;21110;-73
2022/09/12 11:49:42;;;;;;;1.80;1.20;;;;;;;17.70;53.20;99667.36;1774202;80;21187;-73
2022/09/12 11:52:22;;;;;;;2.50;1.40;;;;;;;17.66;53.31;99670.48;1765426;80;21028;-72
2022/09/12 11:55:02;;;;;;;2.10;1.37;;;;;;;17.66;53.31;99669.14;1712235;82;20992;-73
2022/09/12 11:57:40;;;;;;;2.40;1.43;;;;;;;17.68;53.32;99669.62;1712009;82;21569;-72
2022/09/12 12:00:16;;;;;;;1.50;1.10;;;;;;;17.72;53.37;99667.84;1712316;82;21054;-74
2022/09/12 12:03:10;;;;;;;2.67;1.17;;;;;;;17.74;52.93;99664.27;1719512;82;21865;-73
2022/09/12 12:06:08;;;;;;;2.37;1.20;;;;;;;17.75;52.79;99668.54;1738276;82;21015;-74
2022/09/12 12:08:38;;;;;;;2.57;1.10;;;;;;;17.83;52.65;99664.23;1784470;80;21569;-72